Time;durP1;ratioP1;P1;durP2;ratioP2;P2;SDS_P1;SDS_P2;PMS_P1;PMS_P2;Temp;Humidity;BMP_temperature;BMP_pressure;BME280_temperature;BME280_humidity;BME280_pressure;Samples;Min_cycle;Max_cycle;Signal;HPM_P1;HPM_P2
2023/09/11 00:01:56;;;;;;;26.70;7.53;;;20.30;99.90;;;;;;5020441;28;20068;-64
2023/09/11 00:04:21;;;;;;;19.30;6.47;;;20.30;99.90;;;;;;5020460;28;20041;-65
2023/09/11 00:06:47;;;;;;;28.08;6.80;;;20.20;99.90;;;;;;5020055;28;20021;-65
2023/09/11 00:09:13;;;;;;;25.08;7.28;;;20.20;99.90;;;;;;5020146;28;20018;-65
2023/09/11 00:11:39;;;;;;;26.50;6.93;;;20.20;99.90;;;;;;5020281;28;20032;-65
2023/09/11 00:14:04;;;;;;;20.23;5.95;;;20.20;99.90;;;;;;5020327;28;20021;-65
2023/09/11 00:16:30;;;;;;;15.70;5.78;;;20.20;99.90;;;;;;5020937;28;20028;-65
2023/09/11 00:18:56;;;;;;;16.40;5.75;;;20.00;99.90;;;;;;5019914;28;20028;-65
2023/09/11 00:21:23;;;;;;;20.92;6.72;;;19.80;99.90;;;;;;5020486;28;20180;-65
2023/09/11 00:23:49;;;;;;;22.92;6.30;;;19.70;99.90;;;;;;5020554;28;20025;-65
2023/09/11 00:26:14;;;;;;;25.60;6.80;;;19.70;99.90;;;;;;5020743;28;20029;-65
2023/09/11 00:28:40;;;;;;;15.93;5.93;;;19.70;99.90;;;;;;5020071;28;20029;-65
2023/09/11 00:31:05;;;;;;;22.80;6.80;;;19.60;99.90;;;;;;5019748;28;20083;-65
2023/09/11 00:33:31;;;;;;;13.18;5.47;;;19.60;99.90;;;;;;5019866;28;20022;-65
2023/09/11 00:35:56;;;;;;;21.20;6.20;;;19.60;99.90;;;;;;5020117;28;20112;-65
2023/09/11 00:38:22;;;;;;;18.45;5.80;;;19.70;99.90;;;;;;5019944;28;20029;-65
2023/09/11 00:40:48;;;;;;;22.95;6.85;;;19.60;99.90;;;;;;5019667;28;20026;-65
2023/09/11 00:43:13;;;;;;;19.23;6.53;;;19.60;99.90;;;;;;5019543;28;20029;-65
2023/09/11 00:45:39;;;;;;;23.77;6.50;;;19.50;99.90;;;;;;5019785;28;20041;-64
2023/09/11 00:48:05;;;;;;;19.70;6.13;;;19.40;99.90;;;;;;5019591;28;20120;-65
2023/09/11 00:50:32;;;;;;;14.07;5.50;;;19.30;99.90;;;;;;5020479;28;20018;-65
2023/09/11 00:52:57;;;;;;;26.13;6.32;;;19.20;99.90;;;;;;5019895;28;20021;-65
2023/09/11 00:55:23;;;;;;;25.48;7.47;;;19.30;99.90;;;;;;5019580;28;20025;-65
2023/09/11 00:57:50;;;;;;;14.65;6.20;;;19.30;99.90;;;;;;5019558;28;20033;-68
2023/09/11 01:00:16;;;;;;;22.77;6.35;;;19.40;99.90;;;;;;5019620;28;20029;-68
2023/09/11 01:02:41;;;;;;;19.92;5.80;;;19.40;99.90;;;;;;5020217;28;20021;-68
2023/09/11 01:05:08;;;;;;;19.40;5.88;;;19.40;99.90;;;;;;5019853;28;20057;-68
2023/09/11 01:07:35;;;;;;;16.63;4.97;;;19.40;99.90;;;;;;5019644;28;20048;-68
2023/09/11 01:10:05;;;;;;;21.13;5.28;;;19.40;99.90;;;;;;5019319;28;20053;-69
2023/09/11 01:12:35;;;;;;;12.50;5.13;;;19.30;99.90;;;;;;5020100;28;20116;-69
2023/09/11 01:15:04;;;;;;;15.50;4.15;;;19.30;99.90;;;;;;5019797;28;20017;-69
2023/09/11 01:17:34;;;;;;;11.05;4.63;;;19.20;99.90;;;;;;5019481;28;20032;-69
2023/09/11 01:20:09;;;;;;;19.27;5.95;;;19.20;99.90;;;;;;5019187;28;20060;-69
2023/09/11 01:22:49;;;;;;;13.98;4.50;;;19.20;99.90;;;;;;5020190;28;20040;-69
2023/09/11 01:25:52;;;;;;;11.70;4.87;;;19.10;99.90;;;;;;5019363;28;20120;-69
2023/09/11 01:29:02;;;;;;;9.07;4.63;;;19.00;99.90;;;;;;5019867;28;20307;-70
2023/09/11 01:31:29;;;;;;;11.00;4.55;;;19.00;99.90;;;;;;5019109;28;20025;-70
2023/09/11 01:33:59;;;;;;;11.10;4.55;;;18.90;99.90;;;;;;5019630;28;20032;-70
2023/09/11 01:36:24;;;;;;;17.73;5.18;;;18.90;99.90;;;;;;5018981;28;20093;-69
2023/09/11 01:38:50;;;;;;;16.13;5.28;;;18.90;99.90;;;;;;5019462;28;20030;-69
2023/09/11 01:41:17;;;;;;;11.27;4.65;;;18.90;99.90;;;;;;5019016;28;20025;-69
2023/09/11 01:43:44;;;;;;;10.38;3.40;;;18.90;99.90;;;;;;5019198;28;20032;-69
2023/09/11 01:46:11;;;;;;;15.77;5.00;;;18.80;99.90;;;;;;5019129;28;20079;-69
2023/09/11 01:48:40;;;;;;;23.10;5.72;;;18.90;99.90;;;;;;5019767;28;20021;-69
2023/09/11 01:51:07;;;;;;;19.25;6.25;;;19.00;99.90;;;;;;5023182;28;20018;-69
2023/09/11 01:53:32;;;;;;;18.95;6.13;;;19.10;99.90;;;;;;5023074;28;20026;-69
2023/09/11 01:55:59;;;;;;;16.38;5.68;;;19.10;99.90;;;;;;5023316;28;20024;-69
2023/09/11 01:58:24;;;;;;;15.75;4.53;;;19.10;99.90;;;;;;5023356;28;20120;-69
2023/09/11 02:00:50;;;;;;;12.73;5.82;;;19.00;99.90;;;;;;5022890;28;20064;-69
2023/09/11 02:03:19;;;;;;;13.50;4.80;;;18.90;99.90;;;;;;5022584;28;20026;-69
2023/09/11 02:05:44;;;;;;;18.30;5.95;;;18.80;99.90;;;;;;5022757;28;20039;-69
2023/09/11 02:08:10;;;;;;;17.83;6.10;;;18.90;99.90;;;;;;5022640;28;20055;-69
2023/09/11 02:10:35;;;;;;;24.17;5.97;;;18.90;99.90;;;;;;5022497;28;20022;-69
2023/09/11 02:13:01;;;;;;;15.30;5.88;;;18.90;99.90;;;;;;5022392;28;20042;-69
2023/09/11 02:15:27;;;;;;;14.07;5.68;;;18.90;99.90;;;;;;5022223;28;20026;-71
2023/09/11 02:17:52;;;;;;;18.25;6.63;;;18.90;99.90;;;;;;5022561;28;20030;-71
2023/09/11 02:20:18;;;;;;;15.05;6.30;;;18.90;99.90;;;;;;5022420;28;20047;-70
2023/09/11 02:22:43;;;;;;;25.00;5.82;;;18.90;99.90;;;;;;5022054;28;20030;-70
2023/09/11 02:25:09;;;;;;;19.60;5.95;;;18.90;99.90;;;;;;5022714;28;20036;-70
2023/09/11 02:27:35;;;;;;;25.17;6.53;;;18.80;99.90;;;;;;5022142;28;20029;-71
2023/09/11 02:30:00;;;;;;;16.73;5.00;;;18.80;99.90;;;;;;5022575;28;20025;-71
2023/09/11 02:32:26;;;;;;;13.35;6.10;;;18.90;99.90;;;;;;5022186;28;20034;-71
2023/09/11 02:34:51;;;;;;;12.93;4.80;;;18.80;99.90;;;;;;5021969;28;20087;-71
2023/09/11 02:37:17;;;;;;;13.98;5.82;;;18.80;99.90;;;;;;5021824;28;20032;-71
2023/09/11 02:39:42;;;;;;;20.80;6.10;;;18.70;99.90;;;;;;5022651;28;20159;-70
2023/09/11 02:42:08;;;;;;;13.07;5.78;;;18.50;99.90;;;;;;5022050;28;20060;-71
2023/09/11 02:44:34;;;;;;;25.20;5.88;;;18.50;99.90;;;;;;5021925;28;20017;-70
2023/09/11 02:46:59;;;;;;;16.40;5.50;;;18.40;99.90;;;;;;5022403;28;20029;-70
2023/09/11 02:49:25;;;;;;;20.25;5.85;;;18.50;99.90;;;;;;5022661;28;20025;-70
2023/09/11 02:51:50;;;;;;;15.00;5.97;;;18.50;99.90;;;;;;5021891;28;20083;-70
2023/09/11 02:54:16;;;;;;;13.30;5.82;;;18.50;99.90;;;;;;5022270;28;20045;-70
2023/09/11 02:56:41;;;;;;;14.30;5.68;;;18.50;99.90;;;;;;5021775;28;20025;-70
2023/09/11 02:59:07;;;;;;;18.02;6.65;;;18.50;99.90;;;;;;5021260;28;20049;-70
2023/09/11 03:01:33;;;;;;;18.88;6.05;;;18.50;99.90;;;;;;5021647;28;20021;-71
2023/09/11 03:03:58;;;;;;;17.85;6.00;;;18.50;99.90;;;;;;5021350;28;20041;-71
2023/09/11 03:06:24;;;;;;;9.75;5.10;;;18.50;99.90;;;;;;5021479;28;20036;-70
2023/09/11 03:08:49;;;;;;;20.60;5.88;;;18.40;99.90;;;;;;5021171;28;20031;-70
2023/09/11 03:11:15;;;;;;;15.73;5.85;;;18.40;99.90;;;;;;5021299;28;20021;-70
2023/09/11 03:13:40;;;;;;;22.30;5.63;;;18.40;99.90;;;;;;5021630;28;20101;-70
2023/09/11 03:16:14;;;;;;;19.25;5.93;;;18.40;99.90;;;;;;5021459;28;20021;-70
2023/09/11 03:18:40;;;;;;;17.00;5.82;;;18.40;99.90;;;;;;5021319;28;20029;-70
2023/09/11 03:21:09;;;;;;;15.93;5.13;;;18.30;99.90;;;;;;5021215;28;20029;-70
2023/09/11 03:23:35;;;;;;;15.10;4.13;;;18.30;99.90;;;;;;5021678;28;20032;-70
2023/09/11 03:26:01;;;;;;;11.88;3.50;;;18.20;99.90;;;;;;5021479;28;20037;-70
2023/09/11 03:28:28;;;;;;;11.25;3.80;;;18.10;99.90;;;;;;5020786;28;20172;-70
2023/09/11 03:30:54;;;;;;;12.15;3.30;;;18.00;99.90;;;;;;5020847;28;20026;-71
2023/09/11 03:33:19;;;;;;;11.05;3.58;;;17.90;99.90;;;;;;5021043;28;20030;-70
2023/09/11 03:35:48;;;;;;;6.80;3.10;;;17.80;99.90;;;;;;5020892;28;20108;-70
2023/09/11 03:38:14;;;;;;;6.78;3.33;;;17.70;99.90;;;;;;5020692;28;20025;-70
2023/09/11 03:40:43;;;;;;;6.80;3.63;;;17.70;99.90;;;;;;5020829;28;20079;-70
2023/09/11 03:43:09;;;;;;;13.48;4.40;;;17.70;99.90;;;;;;5020659;28;20028;-70
2023/09/11 03:45:34;;;;;;;14.18;4.00;;;17.80;99.90;;;;;;5020847;28;20021;-70
2023/09/11 03:48:00;;;;;;;4.50;3.20;;;17.70;99.90;;;;;;5020317;28;20033;-70
2023/09/11 03:50:25;;;;;;;8.68;3.63;;;17.80;99.90;;;;;;5021293;28;20017;-71
2023/09/11 03:52:51;;;;;;;6.45;3.28;;;17.80;99.90;;;;;;5021476;28;20021;-70
2023/09/11 03:55:17;;;;;;;12.57;4.28;;;17.70;99.90;;;;;;5021183;28;20071;-70
2023/09/11 03:57:43;;;;;;;10.73;3.97;;;17.60;99.90;;;;;;5021213;28;20148;-70
2023/09/11 04:00:09;;;;;;;13.27;4.95;;;17.50;99.90;;;;;;5020265;28;20049;-70
2023/09/11 04:02:34;;;;;;;9.02;5.15;;;17.50;99.90;;;;;;5020575;28;20026;-71
2023/09/11 04:05:00;;;;;;;11.18;4.43;;;17.40;99.90;;;;;;5020292;28;20033;-70
2023/09/11 04:07:25;;;;;;;6.88;3.55;;;17.40;99.90;;;;;;5020372;28;20021;-70
2023/09/11 04:09:51;;;;;;;7.20;4.47;;;17.40;99.90;;;;;;5020293;28;20026;-70
2023/09/11 04:12:17;;;;;;;12.50;5.50;;;17.50;99.90;;;;;;5019344;28;20018;-70
2023/09/11 04:14:46;;;;;;;11.13;3.92;;;17.40;99.90;;;;;;5020192;28;20105;-70
2023/09/11 04:17:12;;;;;;;6.72;3.72;;;17.40;99.90;;;;;;5020099;28;20112;-70
2023/09/11 04:19:38;;;;;;;12.30;3.97;;;17.40;99.90;;;;;;5020350;28;20121;-70
2023/09/11 04:22:07;;;;;;;7.63;3.95;;;17.50;99.90;;;;;;5020713;28;20094;-70
2023/09/11 04:24:33;;;;;;;11.00;4.28;;;17.50;99.90;;;;;;5019776;28;20030;-71
2023/09/11 04:26:58;;;;;;;6.40;3.17;;;17.50;99.90;;;;;;5021037;28;20025;-71
2023/09/11 04:29:25;;;;;;;6.55;3.70;;;17.60;99.90;;;;;;5020577;28;20080;-71
2023/09/11 04:31:50;;;;;;;9.20;3.40;;;17.50;99.90;;;;;;5019854;28;20039;-70
2023/09/11 04:34:17;;;;;;;12.93;4.20;;;17.50;99.90;;;;;;5019694;28;20021;-70
2023/09/11 04:36:42;;;;;;;22.27;4.90;;;17.50;99.90;;;;;;5019948;28;20089;-70
2023/09/11 04:39:08;;;;;;;6.18;3.13;;;17.50;99.90;;;;;;5020661;28;20049;-71
2023/09/11 04:41:33;;;;;;;7.85;3.60;;;17.40;99.90;;;;;;5019568;28;20029;-70
2023/09/11 04:43:59;;;;;;;12.23;3.75;;;17.40;99.90;;;;;;5019920;28;20151;-70
2023/09/11 04:46:24;;;;;;;10.98;4.10;;;17.50;99.90;;;;;;5020403;28;20033;-70
2023/09/11 04:48:50;;;;;;;7.40;3.55;;;17.50;99.90;;;;;;5020070;28;20038;-71
2023/09/11 04:51:15;;;;;;;10.23;3.40;;;17.60;99.90;;;;;;5019591;28;20013;-71
2023/09/11 04:53:41;;;;;;;7.93;4.63;;;17.60;99.90;;;;;;5019836;28;20022;-71
2023/09/11 04:56:07;;;;;;;10.75;4.43;;;17.50;99.90;;;;;;5019528;28;20025;-71
2023/09/11 04:58:33;;;;;;;8.80;4.13;;;17.50;99.90;;;;;;5019745;28;20037;-71
2023/09/11 05:00:58;;;;;;;13.32;4.45;;;17.40;99.90;;;;;;5019362;28;20030;-71
2023/09/11 05:03:24;;;;;;;12.50;4.07;;;17.50;99.90;;;;;;5020418;28;20052;-71
2023/09/11 05:05:50;;;;;;;13.98;3.67;;;17.50;99.90;;;;;;5019565;28;20026;-71
2023/09/11 05:08:15;;;;;;;8.45;3.17;;;17.50;99.90;;;;;;5019688;28;20026;-71
2023/09/11 05:10:42;;;;;;;13.07;4.00;;;17.50;99.90;;;;;;5019328;28;20033;-70
2023/09/11 05:13:07;;;;;;;14.05;4.53;;;17.50;99.90;;;;;;5019291;28;20049;-70
2023/09/11 05:15:33;;;;;;;10.48;5.00;;;17.50;99.90;;;;;;5019393;28;20026;-70
2023/09/11 05:17:58;;;;;;;15.25;5.25;;;17.60;99.90;;;;;;5019428;28;20022;-70
2023/09/11 05:20:24;;;;;;;12.38;4.80;;;17.60;99.90;;;;;;5019143;28;20044;-71
2023/09/11 05:22:50;;;;;;;18.02;6.05;;;17.60;99.90;;;;;;5021350;28;20025;-71
2023/09/11 05:25:15;;;;;;;21.13;5.97;;;17.70;99.90;;;;;;5023249;28;20112;-71
2023/09/11 05:27:41;;;;;;;17.20;6.25;;;17.70;99.90;;;;;;5023234;28;20025;-71
2023/09/11 05:30:07;;;;;;;15.82;4.60;;;17.70;99.90;;;;;;5023022;28;20033;-71
2023/09/11 05:32:32;;;;;;;10.77;4.00;;;17.60;99.90;;;;;;5046604;22;20037;-65
2023/09/11 05:34:58;;;;;;;12.70;4.70;;;17.60;99.90;;;;;;5023040;28;20087;-67
2023/09/11 05:37:24;;;;;;;12.35;5.07;;;17.70;99.90;;;;;;5040358;28;20029;-67
2023/09/11 05:39:49;;;;;;;15.25;5.22;;;17.60;99.90;;;;;;5022990;28;20049;-63
2023/09/11 05:42:15;;;;;;;11.50;5.25;;;17.60;99.90;;;;;;5022892;28;20053;-66
2023/09/11 05:44:40;;;;;;;15.07;5.47;;;17.70;99.90;;;;;;5040294;28;20036;-66
2023/09/11 05:47:07;;;;;;;13.85;4.95;;;17.60;99.90;;;;;;5040288;28;20029;-66
2023/09/11 05:49:33;;;;;;;14.30;5.93;;;17.70;99.90;;;;;;5023085;28;20048;-66
2023/09/11 05:51:59;;;;;;;17.45;6.10;;;17.70;99.90;;;;;;5040141;28;20025;-66
2023/09/11 05:54:24;;;;;;;20.88;7.43;;;17.70;99.90;;;;;;5022673;28;20017;-66
2023/09/11 05:56:50;;;;;;;11.45;5.68;;;17.60;99.90;;;;;;5040346;28;20040;-66
2023/09/11 05:59:18;;;;;;;20.52;7.15;;;17.70;99.90;;;;;;5039983;28;20025;-70
2023/09/11 06:01:47;;;;;;;16.13;6.20;;;17.70;99.90;;;;;;5039900;28;20032;-70
2023/09/11 06:04:13;;;;;;;13.77;6.28;;;17.70;99.90;;;;;;5023245;28;20034;-67
2023/09/11 06:06:39;;;;;;;15.68;5.97;;;17.80;99.90;;;;;;5022764;28;20052;-68
2023/09/11 06:09:08;;;;;;;15.13;6.20;;;17.90;99.90;;;;;;5039866;28;20025;-68
2023/09/11 06:11:36;;;;;;;21.35;7.53;;;18.00;99.90;;;;;;5022506;28;20029;-68
2023/09/11 06:14:04;;;;;;;16.90;7.15;;;18.00;99.90;;;;;;5022999;28;20025;-67
2023/09/11 06:16:30;;;;;;;22.48;6.35;;;18.10;99.90;;;;;;5022224;28;20021;-68
2023/09/11 06:18:59;;;;;;;16.77;7.53;;;18.10;99.90;;;;;;5040168;28;20052;-68
2023/09/11 06:21:25;;;;;;;17.55;7.15;;;18.10;99.90;;;;;;5022122;28;20033;-68
2023/09/11 06:23:50;;;;;;;16.80;7.15;;;18.10;99.90;;;;;;5039503;28;20021;-68
2023/09/11 06:26:16;;;;;;;21.48;7.30;;;18.10;99.90;;;;;;5039510;28;20077;-67
2023/09/11 06:28:42;;;;;;;19.42;7.50;;;18.20;99.90;;;;;;5039629;28;20140;-68
2023/09/11 06:31:08;;;;;;;19.00;7.28;;;18.30;99.90;;;;;;5039453;28;20029;-67
2023/09/11 06:33:34;;;;;;;17.08;6.38;;;18.30;99.90;;;;;;5039334;28;20021;-68
2023/09/11 06:36:00;;;;;;;19.10;6.95;;;18.30;99.90;;;;;;5021440;28;20028;-68
2023/09/11 06:38:25;;;;;;;16.50;6.63;;;18.40;99.90;;;;;;5021916;28;20032;-69
2023/09/11 06:40:51;;;;;;;19.27;7.05;;;18.50;99.90;;;;;;5022190;28;20048;-70
2023/09/11 06:43:16;;;;;;;24.10;6.88;;;18.50;99.90;;;;;;5021836;28;20037;-66
2023/09/11 06:45:42;;;;;;;20.13;7.10;;;18.50;99.90;;;;;;5021719;28;20036;-67
2023/09/11 06:48:11;;;;;;;16.73;7.13;;;18.50;99.90;;;;;;5021549;28;20056;-68
2023/09/11 06:50:38;;;;;;;16.02;7.60;;;18.50;99.90;;;;;;5021584;28;20099;-68
2023/09/11 06:53:06;;;;;;;15.65;7.53;;;18.50;99.90;;;;;;5038910;28;20083;-66
2023/09/11 06:55:32;;;;;;;20.65;6.85;;;18.50;99.90;;;;;;5021607;28;20024;-66
2023/09/11 06:58:00;;;;;;;17.98;7.50;;;18.60;99.90;;;;;;5021832;28;20120;-68
2023/09/11 07:00:26;;;;;;;21.98;7.63;;;18.60;99.90;;;;;;5038819;28;20038;-68
2023/09/11 07:02:51;;;;;;;17.10;6.75;;;18.70;99.90;;;;;;5021502;28;20051;-68
2023/09/11 07:05:18;;;;;;;15.23;6.88;;;18.90;99.90;;;;;;5021724;28;20025;-68
2023/09/11 07:07:44;;;;;;;20.27;7.22;;;19.00;99.90;;;;;;5038719;28;20022;-67
2023/09/11 07:10:11;;;;;;;17.77;7.50;;;19.20;99.90;;;;;;5038820;28;20080;-68
2023/09/11 07:12:38;;;;;;;24.70;8.00;;;19.30;99.90;;;;;;5038840;28;20021;-68
2023/09/11 07:15:05;;;;;;;23.33;6.93;;;19.30;99.90;;;;;;5038642;28;20100;-68
2023/09/11 07:17:31;;;;;;;15.52;6.80;;;19.30;99.90;;;;;;5038469;28;20049;-68
2023/09/11 07:19:56;;;;;;;18.67;7.05;;;19.50;99.90;;;;;;5038831;28;20060;-68
2023/09/11 07:22:22;;;;;;;17.70;7.55;;;19.40;99.90;;;;;;5021025;28;20053;-68
2023/09/11 07:24:48;;;;;;;25.23;7.63;;;19.40;99.90;;;;;;5038426;28;20026;-68
2023/09/11 07:27:13;;;;;;;23.10;8.57;;;19.30;99.90;;;;;;5038607;28;20036;-68
2023/09/11 07:29:40;;;;;;;21.33;7.28;;;19.40;99.90;;;;;;5038545;28;20036;-68
2023/09/11 07:32:05;;;;;;;22.42;7.63;;;19.50;99.90;;;;;;5021092;28;20030;-67
2023/09/11 07:34:31;;;;;;;22.77;7.90;;;19.60;99.90;;;;;;5021071;28;20022;-68
2023/09/11 07:36:57;;;;;;;19.70;7.95;;;19.60;99.90;;;;;;5038232;28;20100;-68
2023/09/11 07:39:22;;;;;;;18.63;8.07;;;19.70;99.90;;;;;;5021072;28;20026;-68
2023/09/11 07:41:48;;;;;;;15.57;7.13;;;19.80;99.90;;;;;;5021025;28;20032;-68
2023/09/11 07:44:14;;;;;;;22.23;7.65;;;19.80;99.90;;;;;;5020716;28;20029;-67
2023/09/11 07:46:39;;;;;;;19.20;8.05;;;19.90;99.90;;;;;;5019476;28;20029;-67
2023/09/11 07:49:05;;;;;;;24.67;7.68;;;20.10;99.90;;;;;;5020725;28;20021;-67
2023/09/11 07:51:30;;;;;;;20.70;7.53;;;20.20;99.90;;;;;;5020552;28;20023;-66
2023/09/11 07:53:56;;;;;;;22.38;7.63;;;20.20;99.90;;;;;;5037869;28;20022;-66
2023/09/11 07:56:22;;;;;;;27.90;7.22;;;20.30;99.90;;;;;;5037868;28;20072;-66
2023/09/11 07:58:50;;;;;;;21.98;6.82;;;20.40;99.90;;;;;;5020380;28;20029;-67
2023/09/11 08:01:21;;;;;;;23.05;6.90;;;20.50;99.90;;;;;;5020662;28;20022;-67
2023/09/11 08:03:47;;;;;;;20.05;6.22;;;20.60;99.90;;;;;;5037794;28;20021;-66
2023/09/11 08:06:13;;;;;;;22.10;7.38;;;20.70;99.90;;;;;;5038057;28;20036;-66
2023/09/11 08:08:39;;;;;;;19.73;6.80;;;20.90;99.90;;;;;;5020220;28;20029;-66
2023/09/11 08:11:16;;;;;;;15.80;7.15;;;21.00;99.90;;;;;;5037591;28;20051;-66
2023/09/11 08:13:42;;;;;;;19.42;6.70;;;21.10;99.90;;;;;;5037483;28;20045;-66
2023/09/11 08:16:08;;;;;;;15.45;6.20;;;21.10;99.90;;;;;;5020065;28;20056;-66
2023/09/11 08:18:34;;;;;;;20.23;6.93;;;21.20;99.90;;;;;;5020045;28;20128;-66
2023/09/11 08:21:00;;;;;;;22.83;6.72;;;21.30;99.90;;;;;;5020032;28;20049;-65
2023/09/11 08:23:26;;;;;;;18.50;6.95;;;21.40;99.90;;;;;;5019950;28;20060;-65
2023/09/11 08:25:59;;;;;;;24.70;7.07;;;21.40;99.90;;;;;;5020136;28;20029;-66
2023/09/11 08:28:24;;;;;;;21.15;7.15;;;21.40;99.90;;;;;;5037376;28;20025;-67
2023/09/11 08:30:50;;;;;;;16.33;6.55;;;21.40;99.90;;;;;;5037093;28;20037;-66
2023/09/11 08:33:16;;;;;;;13.98;5.70;;;21.50;99.90;;;;;;5019981;28;20048;-69
2023/09/11 08:35:42;;;;;;;21.92;6.78;;;21.70;99.90;;;;;;5037130;28;20039;-67
2023/09/11 08:38:08;;;;;;;15.45;6.22;;;21.80;99.90;;;;;;5020204;28;20025;-67
2023/09/11 08:40:34;;;;;;;13.35;6.57;;;21.90;99.90;;;;;;5037083;28;20030;-67
2023/09/11 08:43:00;;;;;;;20.17;6.57;;;21.90;99.90;;;;;;5020005;28;20032;-67
2023/09/11 08:45:26;;;;;;;22.23;7.32;;;22.10;99.90;;;;;;5019948;28;20025;-67
2023/09/11 08:47:56;;;;;;;16.80;7.10;;;22.40;99.90;;;;;;5019868;28;20037;-67
2023/09/11 08:50:29;;;;;;;18.33;7.60;;;22.70;99.90;;;;;;5019627;28;20029;-66
2023/09/11 08:52:57;;;;;;;17.52;7.25;;;22.70;99.90;;;;;;5036982;28;20028;-68
2023/09/11 08:55:24;;;;;;;16.88;7.00;;;22.70;99.90;;;;;;5019593;28;20045;-67
2023/09/11 08:57:50;;;;;;;17.08;7.25;;;22.90;99.90;;;;;;5019926;28;20026;-67
2023/09/11 09:00:16;;;;;;;13.23;6.32;;;23.20;99.90;;;;;;5036855;28;20022;-67
2023/09/11 09:02:43;;;;;;;23.08;7.38;;;23.50;99.90;;;;;;5020038;28;20032;-67
2023/09/11 09:05:09;;;;;;;17.92;6.68;;;23.50;99.90;;;;;;5036728;28;20025;-67
2023/09/11 09:07:35;;;;;;;26.45;6.78;;;23.70;99.90;;;;;;5036948;28;20034;-67
2023/09/11 09:10:02;;;;;;;18.83;6.88;;;23.70;99.90;;;;;;5037061;28;20104;-67
2023/09/11 09:12:28;;;;;;;20.23;5.40;;;23.70;99.90;;;;;;5036647;28;20100;-67
2023/09/11 09:14:54;;;;;;;20.65;6.30;;;23.60;99.90;;;;;;5036653;28;20049;-67
2023/09/11 09:17:19;;;;;;;21.65;6.22;;;23.80;99.90;;;;;;5019613;28;20112;-67
2023/09/11 09:19:45;;;;;;;22.40;5.97;;;24.10;99.90;;;;;;5036721;28;20030;-67
2023/09/11 09:22:15;;;;;;;21.90;7.68;;;24.20;99.90;;;;;;5036767;28;20060;-67
2023/09/11 09:24:54;;;;;;;23.23;6.25;;;24.20;99.90;;;;;;5036717;28;20045;-67
2023/09/11 09:27:22;;;;;;;17.02;6.13;;;24.50;99.90;;;;;;5036549;28;20053;-67
2023/09/11 09:29:48;;;;;;;27.73;5.88;;;24.70;99.90;;;;;;5036575;28;20101;-67
2023/09/11 09:32:14;;;;;;;22.60;6.63;;;24.70;99.90;;;;;;5036743;28;20029;-67
2023/09/11 09:34:54;;;;;;;23.35;6.22;;;24.90;99.90;;;;;;5036814;28;20026;-67
2023/09/11 09:37:21;;;;;;;14.23;5.82;;;25.00;99.90;;;;;;5036774;28;20032;-67
2023/09/11 09:39:50;;;;;;;19.77;5.65;;;24.90;99.90;;;;;;5036475;28;20030;-67
2023/09/11 09:42:16;;;;;;;17.17;6.55;;;25.00;99.90;;;;;;5019030;28;20052;-67
2023/09/11 09:44:48;;;;;;;23.27;6.78;;;25.10;99.90;;;;;;5036732;28;20112;-67
2023/09/11 09:47:18;;;;;;;19.80;5.72;;;25.10;99.90;;;;;;5019337;28;20025;-67
2023/09/11 09:49:57;;;;;;;20.00;6.00;;;25.20;99.90;;;;;;5019020;28;20033;-67
2023/09/11 09:52:29;;;;;;;17.52;6.45;;;25.50;99.90;;;;;;5036295;28;20013;-67
2023/09/11 09:54:57;;;;;;;23.02;5.40;;;25.60;99.90;;;;;;5036315;28;20068;-67
2023/09/11 09:57:25;;;;;;;16.92;6.10;;;25.70;99.90;;;;;;5036242;28;20022;-67
2023/09/11 09:59:57;;;;;;;16.42;5.93;;;25.90;99.90;;;;;;5036674;28;20103;-67
2023/09/11 10:02:25;;;;;;;15.45;5.82;;;25.80;99.90;;;;;;5036703;28;20081;-67
2023/09/11 10:04:53;;;;;;;20.35;5.28;;;25.80;99.90;;;;;;5019098;28;20025;-67
2023/09/11 10:07:42;;;;;;;18.83;5.50;;;25.80;99.90;;;;;;5019058;28;20030;-68
2023/09/11 10:10:30;;;;;;;22.48;6.20;;;25.80;99.90;;;;;;5038181;28;20022;-67
2023/09/11 10:13:12;;;;;;;18.23;5.40;;;25.80;99.90;;;;;;5022352;28;20025;-67
2023/09/11 10:15:39;;;;;;;21.92;5.78;;;25.90;99.90;;;;;;5040081;28;20091;-67
2023/09/11 10:18:06;;;;;;;19.83;5.80;;;26.30;99.90;;;;;;5039653;28;20025;-67
2023/09/11 10:20:33;;;;;;;20.75;5.70;;;26.70;99.90;;;;;;5039644;28;20034;-67
2023/09/11 10:23:00;;;;;;;12.25;4.78;;;27.10;99.90;;;;;;5022218;28;20030;-67
2023/09/11 10:25:33;;;;;;;15.93;5.43;;;27.20;99.90;;;;;;5039546;28;20029;-67
2023/09/11 10:28:28;;;;;;;19.77;6.80;;;27.30;99.90;;;;;;5039383;28;20032;-67
2023/09/11 10:31:15;;;;;;;19.10;6.07;;;27.40;99.90;;;;;;5033960;28;20041;-67
2023/09/11 10:33:44;;;;;;;19.17;5.40;;;27.60;99.90;;;;;;5039444;28;20037;-67
2023/09/11 10:36:14;;;;;;;15.73;5.72;;;27.40;99.90;;;;;;5039332;28;20048;-67
2023/09/11 10:38:43;;;;;;;9.23;5.00;;;27.30;99.90;;;;;;5021881;28;20032;-67
2023/09/11 10:41:09;;;;;;;22.05;6.53;;;27.20;99.90;;;;;;5039362;28;20017;-68
2023/09/11 10:43:35;;;;;;;21.40;5.95;;;27.20;99.90;;;;;;5039239;28;20040;-67
2023/09/11 10:46:22;;;;;;;21.08;5.80;;;27.40;99.90;;;;;;5021874;28;20028;-67
2023/09/11 10:48:51;;;;;;;26.05;6.05;;;27.70;99.90;;;;;;5021645;28;20044;-67
2023/09/11 10:51:16;;;;;;;20.50;5.30;;;27.70;99.90;;;;;;5039280;28;20032;-67
2023/09/11 10:53:43;;;;;;;21.77;5.75;;;27.50;99.90;;;;;;5039032;28;20080;-67
2023/09/11 10:56:10;;;;;;;13.95;5.22;;;27.80;99.90;;;;;;5021806;28;20026;-67
2023/09/11 10:58:36;;;;;;;20.20;5.63;;;27.90;99.90;;;;;;5021802;28;20025;-67
2023/09/11 11:01:04;;;;;;;23.25;5.30;;;28.00;99.90;;;;;;5022290;28;20025;-67
2023/09/11 11:03:31;;;;;;;21.25;5.53;;;27.90;99.90;;;;;;5021300;28;20026;-67
2023/09/11 11:06:02;;;;;;;23.08;5.93;;;27.80;99.90;;;;;;5039030;28;20029;-67
2023/09/11 11:08:36;;;;;;;27.52;6.40;;;27.80;99.90;;;;;;5021997;28;20026;-67
2023/09/11 11:11:02;;;;;;;20.88;6.65;;;27.70;99.90;;;;;;5038806;28;20017;-67
2023/09/11 11:13:29;;;;;;;19.85;5.63;;;27.70;99.90;;;;;;5038835;28;20052;-66
2023/09/11 11:16:19;;;;;;;21.85;6.68;;;27.70;99.90;;;;;;5021786;28;20053;-66
2023/09/11 11:18:45;;;;;;;24.40;5.80;;;27.70;99.90;;;;;;5038644;28;20026;-66
2023/09/11 11:21:11;;;;;;;24.25;5.68;;;27.80;99.90;;;;;;5021102;28;20052;-66
2023/09/11 11:23:54;;;;;;;24.27;5.45;;;27.80;99.90;;;;;;5022489;28;20036;-66
2023/09/11 11:26:23;;;;;;;11.35;4.55;;;28.10;99.90;;;;;;5021238;28;20029;-67
2023/09/11 11:28:49;;;;;;;24.98;6.15;;;28.40;99.90;;;;;;5021101;28;20031;-68
2023/09/11 11:31:20;;;;;;;13.18;5.05;;;28.60;99.90;;;;;;5021368;28;20108;-66
2023/09/11 11:33:47;;;;;;;29.05;5.70;;;29.00;99.90;;;;;;5021255;28;20026;-67
2023/09/11 11:36:14;;;;;;;15.30;6.22;;;29.10;99.90;;;;;;5021144;28;20055;-70
2023/09/11 11:38:42;;;;;;;16.15;4.72;;;28.80;99.90;;;;;;5020685;28;20028;-70
2023/09/11 11:41:09;;;;;;;20.08;6.05;;;28.60;99.90;;;;;;5021076;28;20029;-69
2023/09/11 11:43:35;;;;;;;26.63;5.18;;;28.50;99.90;;;;;;5020887;28;20034;-69
2023/09/11 11:46:01;;;;;;;13.00;4.55;;;28.40;99.90;;;;;;5020943;28;20025;-68
2023/09/11 11:48:27;;;;;;;18.13;6.28;;;28.60;99.90;;;;;;5020535;28;20120;-70
2023/09/11 11:50:53;;;;;;;25.08;5.38;;;28.90;99.90;;;;;;5021036;28;20026;-68
2023/09/11 11:53:24;;;;;;;29.33;5.85;;;28.90;99.90;;;;;;5021302;28;20031;-68
2023/09/11 11:55:51;;;;;;;26.90;5.50;;;28.90;99.90;;;;;;5020757;28;20028;-68
2023/09/11 11:58:17;;;;;;;16.27;5.25;;;29.40;99.90;;;;;;5020704;28;20036;-67
2023/09/11 12:01:00;;;;;;;18.20;5.45;;;29.50;99.90;;;;;;5021249;28;20021;-67
2023/09/11 12:03:27;;;;;;;23.13;6.93;;;29.50;99.90;;;;;;5021109;28;20052;-69
2023/09/11 12:05:54;;;;;;;17.95;5.43;;;29.30;99.90;;;;;;5020131;28;20079;-69
2023/09/11 12:08:19;;;;;;;16.90;4.65;;;29.10;99.90;;;;;;5020505;28;20030;-66
2023/09/11 12:10:50;;;;;;;21.50;5.45;;;29.30;99.90;;;;;;5020573;28;20025;-68
2023/09/11 12:13:20;;;;;;;;;;;29.40;99.90;;;;;;5021267;28;20021;-67
2023/09/11 12:15:57;;;;;;;14.40;4.28;;;29.70;99.90;;;;;;5020722;28;19920;-69
2023/09/11 12:18:24;;;;;;;14.60;4.93;;;29.40;99.90;;;;;;5020284;28;20026;-66
2023/09/11 12:20:56;;;;;;;19.05;5.95;;;29.20;99.90;;;;;;5020495;28;20060;-69
2023/09/11 12:23:21;;;;;;;27.33;5.28;;;29.50;99.90;;;;;;5020601;28;20026;-68
2023/09/11 12:25:47;;;;;;;20.02;5.13;;;29.50;99.90;;;;;;5020340;28;20029;-68
2023/09/11 12:28:14;;;;;;;17.60;5.30;;;29.90;99.90;;;;;;5019738;28;20036;-70
2023/09/11 12:30:42;;;;;;;16.33;4.95;;;30.10;99.90;;;;;;5020505;28;20112;-67
2023/09/11 12:33:09;;;;;;;22.67;4.93;;;29.80;99.90;;;;;;5019240;28;20053;-68
2023/09/11 12:35:36;;;;;;;21.52;5.35;;;29.50;99.90;;;;;;5037059;28;20095;-69
2023/09/11 12:38:02;;;;;;;19.30;5.60;;;29.50;99.90;;;;;;5020499;28;20021;-70
2023/09/11 12:40:29;;;;;;;18.52;5.53;;;29.80;99.90;;;;;;5019625;28;20052;-67